createdAt,value
2022-10-24T00:00:58.323Z,15.24
2022-10-24T00:03:24.628Z,15.21
2022-10-24T00:05:50.984Z,15.18
2022-10-24T00:08:17.328Z,15.14
2022-10-24T00:10:43.734Z,15.12
2022-10-24T00:13:10.145Z,15.10
2022-10-24T00:15:36.421Z,15.08
2022-10-24T00:18:02.764Z,15.06
2022-10-24T00:20:29.128Z,15.05
2022-10-24T00:22:55.519Z,15.03
2022-10-24T00:25:21.899Z,15.03
2022-10-24T00:27:48.219Z,14.99
2022-10-24T00:30:14.589Z,14.95
2022-10-24T00:32:41.150Z,14.92
2022-10-24T00:35:07.280Z,14.90
2022-10-24T00:37:33.618Z,14.88
2022-10-24T00:39:59.990Z,14.86
2022-10-24T00:42:26.367Z,14.83
2022-10-24T00:44:52.697Z,14.90
2022-10-24T00:47:19.044Z,14.93
2022-10-24T00:49:45.377Z,14.95
2022-10-24T00:52:11.726Z,14.90
2022-10-24T00:54:38.047Z,14.86
2022-10-24T00:57:04.455Z,14.82
2022-10-24T00:59:30.773Z,14.77
2022-10-24T01:01:57.106Z,14.72
2022-10-24T01:04:23.417Z,14.71
2022-10-24T01:06:49.753Z,14.68
2022-10-24T01:09:16.104Z,14.63
2022-10-24T01:11:42.448Z,14.57
2022-10-24T01:14:08.793Z,14.54
2022-10-24T01:16:35.110Z,14.50
2022-10-24T01:19:01.453Z,14.48
2022-10-24T01:21:27.772Z,14.45
2022-10-24T01:23:54.173Z,14.42
2022-10-24T01:26:20.507Z,14.38
2022-10-24T01:28:46.828Z,14.36
2022-10-24T01:31:13.172Z,14.34
2022-10-24T01:33:39.490Z,14.33
2022-10-24T01:36:05.842Z,14.31
2022-10-24T01:38:32.164Z,14.28
2022-10-24T01:40:58.518Z,14.24
2022-10-24T01:43:24.842Z,14.21
2022-10-24T01:45:51.271Z,14.18
2022-10-24T01:48:17.551Z,14.16
2022-10-24T01:50:43.887Z,14.14
2022-10-24T01:53:10.248Z,14.13
2022-10-24T01:55:36.584Z,14.10
2022-10-24T01:58:02.936Z,14.10
2022-10-24T02:00:29.379Z,14.15
2022-10-24T02:02:55.613Z,14.27
2022-10-24T02:05:21.937Z,14.30
2022-10-24T02:07:48.279Z,14.23
2022-10-24T02:10:14.603Z,14.17
2022-10-24T02:12:41.061Z,14.08
2022-10-24T02:15:07.275Z,14.04
2022-10-24T02:17:33.617Z,14.00
2022-10-24T02:19:59.945Z,14.02
2022-10-24T02:22:26.266Z,14.02
2022-10-24T02:24:52.612Z,13.99
2022-10-24T02:27:18.944Z,13.98
2022-10-24T02:29:45.295Z,13.95
2022-10-24T02:32:11.652Z,13.92
2022-10-24T02:34:38.031Z,13.94
2022-10-24T02:37:04.434Z,13.94
2022-10-24T02:39:30.757Z,13.91
2022-10-24T02:41:57.089Z,13.85
2022-10-24T02:44:23.411Z,13.82
2022-10-24T02:46:49.751Z,13.82
2022-10-24T02:49:16.100Z,13.81
2022-10-24T02:51:42.416Z,13.78
2022-10-24T02:54:08.768Z,13.75
2022-10-24T02:56:35.121Z,13.74
2022-10-24T02:59:01.536Z,13.72
2022-10-24T03:01:27.900Z,13.71
2022-10-24T03:03:54.179Z,13.74
2022-10-24T03:06:20.517Z,13.81
2022-10-24T03:08:46.942Z,13.89
2022-10-24T03:11:13.232Z,13.90
2022-10-24T03:13:39.606Z,13.83
2022-10-24T03:16:07.860Z,13.78
2022-10-24T03:18:32.272Z,13.72
2022-10-24T03:20:58.584Z,13.68
2022-10-24T03:23:24.931Z,13.66
2022-10-24T03:25:51.268Z,13.63
2022-10-24T03:28:17.594Z,13.60
2022-10-24T03:30:43.983Z,13.58
2022-10-24T03:33:10.324Z,13.57
2022-10-24T03:35:36.663Z,13.59
2022-10-24T03:38:02.985Z,13.62
2022-10-24T03:40:29.330Z,13.65
2022-10-24T03:42:55.673Z,13.70
2022-10-24T03:45:21.991Z,13.64
2022-10-24T03:47:48.363Z,13.56
2022-10-24T03:50:14.788Z,13.51
2022-10-24T03:52:41.052Z,13.44
2022-10-24T03:55:07.401Z,13.41
2022-10-24T03:57:33.763Z,13.40
2022-10-24T04:00:00.088Z,13.34
2022-10-24T04:02:26.492Z,13.35
2022-10-24T04:04:52.836Z,13.36
2022-10-24T04:07:19.210Z,13.41
2022-10-24T04:09:45.494Z,13.42
2022-10-24T04:12:11.878Z,13.42
2022-10-24T04:14:38.195Z,13.36
2022-10-24T04:17:04.528Z,13.28
2022-10-24T04:19:30.868Z,13.23
2022-10-24T04:21:57.198Z,13.20
2022-10-24T04:24:23.566Z,13.16
2022-10-24T04:26:50.074Z,13.13
2022-10-24T04:29:16.328Z,13.13
2022-10-24T04:31:42.676Z,13.12
2022-10-24T04:34:08.992Z,13.08
2022-10-24T04:36:35.338Z,13.08
2022-10-24T04:39:01.784Z,13.23
2022-10-24T04:41:28.114Z,13.34
2022-10-24T04:43:54.449Z,13.42
2022-10-24T04:46:20.778Z,13.48
2022-10-24T04:48:47.095Z,13.54
2022-10-24T04:51:15.354Z,13.58
2022-10-24T04:53:39.799Z,13.61
2022-10-24T04:56:06.116Z,13.64
2022-10-24T04:58:32.462Z,13.69
2022-10-24T05:00:58.865Z,13.72
2022-10-24T05:03:25.152Z,13.76
2022-10-24T05:05:51.473Z,13.80
2022-10-24T05:08:17.850Z,13.64
2022-10-24T05:10:44.196Z,13.47
2022-10-24T05:13:10.550Z,13.36
2022-10-24T05:15:36.957Z,13.28
2022-10-24T05:18:03.294Z,13.27
2022-10-24T05:20:29.679Z,13.27
2022-10-24T05:22:55.952Z,13.29
2022-10-24T05:25:22.369Z,13.32
2022-10-24T05:27:48.748Z,13.38
2022-10-24T05:30:15.074Z,13.45
2022-10-24T05:32:41.431Z,13.55
2022-10-24T05:35:07.763Z,13.66
2022-10-24T05:37:34.089Z,13.78
2022-10-24T05:40:00.430Z,13.89
2022-10-24T05:42:26.750Z,14.00
2022-10-24T05:44:53.087Z,14.08
2022-10-24T05:47:19.411Z,14.20
2022-10-24T05:49:45.754Z,14.33
2022-10-24T05:52:12.088Z,14.46
2022-10-24T05:54:48.795Z,14.55
2022-10-24T05:57:04.760Z,14.66
2022-10-24T05:59:31.105Z,14.76
2022-10-24T06:01:57.615Z,14.88
2022-10-24T06:04:23.799Z,14.98
2022-10-24T06:06:50.131Z,15.12
2022-10-24T06:09:16.481Z,15.30
2022-10-24T06:11:42.817Z,15.50
2022-10-24T06:14:09.146Z,15.69
2022-10-24T06:16:35.468Z,15.92
2022-10-24T06:19:01.810Z,16.15
2022-10-24T06:21:28.157Z,16.39
2022-10-24T06:23:54.481Z,16.54
2022-10-24T06:26:23.911Z,16.66
2022-10-24T06:28:47.181Z,16.75
2022-10-24T06:31:13.498Z,16.91
2022-10-24T06:33:39.843Z,17.08
2022-10-24T06:36:06.163Z,17.27
2022-10-24T06:38:32.575Z,17.44
2022-10-24T06:40:58.927Z,17.68
2022-10-24T06:43:25.190Z,17.93
2022-10-24T06:45:51.538Z,18.17
2022-10-24T06:48:17.839Z,18.35
2022-10-24T06:50:44.161Z,18.42
2022-10-24T06:53:10.539Z,18.52
2022-10-24T06:55:36.821Z,18.66
2022-10-24T06:58:03.159Z,18.79
2022-10-24T07:00:29.497Z,18.89
2022-10-24T07:02:55.823Z,19.09
2022-10-24T07:05:22.187Z,19.27
2022-10-24T07:07:48.636Z,19.43
2022-10-24T07:10:14.887Z,19.73
2022-10-24T07:12:41.384Z,19.92
2022-10-24T07:15:07.564Z,20.12
2022-10-24T07:17:33.895Z,20.26
2022-10-24T07:20:00.240Z,20.52
2022-10-24T07:22:28.279Z,20.77
2022-10-24T07:24:52.970Z,20.92
2022-10-24T07:27:19.373Z,21.07
2022-10-24T07:29:45.712Z,21.27
2022-10-24T07:32:12.058Z,21.52
2022-10-24T07:34:38.405Z,21.61
2022-10-24T07:37:04.734Z,21.72
2022-10-24T07:39:31.074Z,21.95
2022-10-24T07:41:57.441Z,22.14
2022-10-24T07:44:23.777Z,22.36
2022-10-24T07:46:50.106Z,22.62
2022-10-24T07:49:16.426Z,22.75
2022-10-24T07:51:42.784Z,22.88
2022-10-24T07:54:09.127Z,22.96
2022-10-24T07:56:35.460Z,23.06
2022-10-24T07:59:09.163Z,23.25
2022-10-24T08:01:28.178Z,23.47
2022-10-24T08:03:54.422Z,23.68
2022-10-24T08:06:20.770Z,23.85
2022-10-24T08:08:47.114Z,23.96
2022-10-24T08:11:13.438Z,24.18
2022-10-24T08:13:39.780Z,24.38
2022-10-24T08:16:06.210Z,24.52
2022-10-24T08:18:35.766Z,24.53
2022-10-24T08:20:58.870Z,24.61
2022-10-24T08:23:25.667Z,24.75
2022-10-24T08:25:51.541Z,24.93
2022-10-24T08:28:17.908Z,25.08
2022-10-24T08:30:44.230Z,25.27
2022-10-24T08:33:10.569Z,25.36
2022-10-24T08:35:36.914Z,25.38
2022-10-24T08:38:03.262Z,25.58
2022-10-24T08:40:29.593Z,25.82
2022-10-24T08:42:55.916Z,25.96
2022-10-24T08:45:22.268Z,26.07
2022-10-24T08:47:48.614Z,26.16
2022-10-24T08:50:14.938Z,26.13
2022-10-24T08:52:41.294Z,26.28
2022-10-24T08:55:09.115Z,26.46
2022-10-24T09:00:00.299Z,26.96
2022-10-24T09:02:26.805Z,27.05
2022-10-24T09:04:53.021Z,27.18
2022-10-24T09:07:19.419Z,27.22
2022-10-24T09:09:45.687Z,27.01
2022-10-24T09:12:12.011Z,27.17
2022-10-24T09:14:38.354Z,27.41
2022-10-24T09:17:04.707Z,27.65
2022-10-24T09:19:31.033Z,27.85
2022-10-24T09:21:57.379Z,27.82
2022-10-24T09:24:23.720Z,27.94
2022-10-24T09:26:50.040Z,28.04
2022-10-24T09:29:16.369Z,28.21
2022-10-24T09:31:42.723Z,28.46
2022-10-24T09:34:09.038Z,28.70
2022-10-24T09:36:35.387Z,28.86
2022-10-24T09:39:01.723Z,29.00
2022-10-24T09:41:28.093Z,29.13
2022-10-24T09:43:54.457Z,29.26
2022-10-24T09:46:20.821Z,29.44
2022-10-24T09:48:47.100Z,29.58
2022-10-24T09:51:13.446Z,29.72
2022-10-24T09:53:39.773Z,29.82
2022-10-24T09:56:06.100Z,29.93
2022-10-24T09:58:32.465Z,30.06
2022-10-24T10:00:58.854Z,30.15
2022-10-24T10:03:25.110Z,30.28
2022-10-24T10:05:51.456Z,30.44
2022-10-24T10:08:17.803Z,30.59
2022-10-24T10:10:44.143Z,30.56
2022-10-24T10:13:10.475Z,30.57
2022-10-24T10:15:36.819Z,30.69
2022-10-24T10:18:03.139Z,30.58
2022-10-24T10:20:29.468Z,30.41
2022-10-24T10:22:55.793Z,30.54
2022-10-24T10:25:22.119Z,30.69
2022-10-24T10:27:48.503Z,30.93
2022-10-24T10:30:14.996Z,31.09
2022-10-24T10:32:41.122Z,31.22
2022-10-24T10:35:07.478Z,31.20
2022-10-24T10:37:33.838Z,31.20
2022-10-24T10:40:00.174Z,31.39
2022-10-24T10:42:26.525Z,31.48
2022-10-24T10:44:52.886Z,31.36
2022-10-24T10:47:21.718Z,31.29
2022-10-24T10:49:45.548Z,31.41
2022-10-24T10:52:11.911Z,31.45
2022-10-24T10:54:38.235Z,31.45
2022-10-24T10:57:04.586Z,31.45
2022-10-24T10:59:30.911Z,31.49
2022-10-24T11:01:57.410Z,31.20
2022-10-24T11:04:23.600Z,31.16
2022-10-24T11:06:50.056Z,31.26
2022-10-24T11:09:16.298Z,31.53
2022-10-24T11:11:42.622Z,31.74
2022-10-24T11:14:08.986Z,31.69
2022-10-24T11:16:35.350Z,31.67
2022-10-24T11:19:01.690Z,31.64
2022-10-24T11:21:28.040Z,31.68
2022-10-24T11:23:54.381Z,31.62
2022-10-24T11:26:20.731Z,31.51
2022-10-24T11:28:47.099Z,31.46
2022-10-24T11:31:13.460Z,31.42
2022-10-24T11:33:39.777Z,31.43
2022-10-24T11:36:06.157Z,31.37
2022-10-24T11:38:32.525Z,31.47
2022-10-24T11:40:59.926Z,31.54
2022-10-24T11:43:25.196Z,31.56
2022-10-24T11:45:51.530Z,31.64
2022-10-24T11:48:17.844Z,31.72
2022-10-24T11:50:44.191Z,31.72
2022-10-24T11:53:10.533Z,31.71
2022-10-24T11:55:36.883Z,31.78
2022-10-24T11:58:03.231Z,31.80
2022-10-24T12:00:29.569Z,31.88
2022-10-24T12:02:55.936Z,31.92
2022-10-24T12:05:22.236Z,31.91
2022-10-24T12:07:48.778Z,31.95
2022-10-24T12:10:14.917Z,31.93
2022-10-24T12:12:41.236Z,31.91
2022-10-24T12:15:07.591Z,31.80
2022-10-24T12:17:33.907Z,31.85
2022-10-24T12:20:00.235Z,31.93
2022-10-24T12:24:52.927Z,31.81
2022-10-24T12:27:19.284Z,31.79
2022-10-24T12:29:45.624Z,31.83
2022-10-24T12:32:11.964Z,31.92
2022-10-24T12:34:38.305Z,31.97
2022-10-24T12:37:04.624Z,31.97
2022-10-24T12:39:30.958Z,31.91
2022-10-24T12:41:57.308Z,31.86
2022-10-24T12:44:23.629Z,31.82
2022-10-24T12:46:50.009Z,31.82
2022-10-24T12:49:16.354Z,31.75
2022-10-24T12:51:42.684Z,31.66
2022-10-24T12:54:09.000Z,31.60
2022-10-24T12:56:35.416Z,31.53
2022-10-24T12:59:01.767Z,31.36
2022-10-24T13:01:28.227Z,31.32
2022-10-24T13:03:54.407Z,31.30
2022-10-24T13:06:20.761Z,31.27
2022-10-24T13:08:47.071Z,31.17
2022-10-24T13:11:13.419Z,31.04
2022-10-24T13:13:39.784Z,30.89
2022-10-24T13:16:06.150Z,30.75
2022-10-24T13:18:32.493Z,30.66
2022-10-24T13:20:58.854Z,30.48
2022-10-24T13:23:25.168Z,30.40
2022-10-24T13:25:51.513Z,30.23
2022-10-24T13:28:17.831Z,30.05
2022-10-24T13:30:46.047Z,29.92
2022-10-24T13:33:10.562Z,29.81
2022-10-24T13:35:36.913Z,29.77
2022-10-24T13:38:07.091Z,29.68
2022-10-24T13:40:29.555Z,29.58
2022-10-24T13:42:55.905Z,29.56
2022-10-24T13:45:22.248Z,29.52
2022-10-24T13:47:48.705Z,29.45
2022-10-24T13:50:14.915Z,29.23
2022-10-24T13:52:44.491Z,29.17
2022-10-24T13:55:07.632Z,29.05
2022-10-24T13:57:34.023Z,28.83
2022-10-24T14:00:00.419Z,28.75
2022-10-24T14:02:29.766Z,28.78
2022-10-24T14:04:57.439Z,28.67
2022-10-24T14:07:19.398Z,28.46
2022-10-24T14:09:45.779Z,28.33
2022-10-24T14:12:12.057Z,28.20
2022-10-24T14:14:38.405Z,28.04
2022-10-24T14:17:04.720Z,27.90
2022-10-24T14:19:32.542Z,27.82
2022-10-24T14:21:57.384Z,27.72
2022-10-24T14:24:23.738Z,27.64
2022-10-24T14:26:50.079Z,27.56
2022-10-24T14:29:16.447Z,27.50
2022-10-24T14:31:42.800Z,27.40
2022-10-24T14:34:09.124Z,27.31
2022-10-24T14:36:35.447Z,27.19
2022-10-24T14:39:01.823Z,27.11
2022-10-24T14:41:29.893Z,26.99
2022-10-24T14:43:54.570Z,26.90
2022-10-24T14:46:25.555Z,26.81
2022-10-24T14:48:47.259Z,26.70
2022-10-24T14:51:13.595Z,26.58
2022-10-24T14:53:40.009Z,26.49
2022-10-24T14:56:06.354Z,26.41
2022-10-24T14:58:32.703Z,26.32
2022-10-24T15:00:59.074Z,26.23
2022-10-24T15:03:25.387Z,26.14
2022-10-24T15:05:51.728Z,26.04
2022-10-24T15:08:22.766Z,25.98
2022-10-24T15:10:44.441Z,25.88
2022-10-24T15:13:10.760Z,25.80
2022-10-24T15:15:37.081Z,25.71
2022-10-24T15:18:03.457Z,25.64
2022-10-24T15:20:29.769Z,25.55
2022-10-24T15:22:56.115Z,25.45
2022-10-24T15:27:49.097Z,25.31
2022-10-24T15:30:15.096Z,25.21
2022-10-24T15:32:41.495Z,25.07
2022-10-24T15:35:07.843Z,24.99
2022-10-24T15:37:34.163Z,24.92
2022-10-24T15:40:00.501Z,24.85
2022-10-24T15:42:26.877Z,24.80
2022-10-24T15:44:53.193Z,24.73
2022-10-24T15:47:19.538Z,24.64
2022-10-24T15:49:45.883Z,24.57
2022-10-24T15:52:12.237Z,24.51
2022-10-24T15:54:38.562Z,24.43
2022-10-24T15:57:05.443Z,24.38
2022-10-24T15:59:31.262Z,24.33
2022-10-24T16:01:57.623Z,24.28
2022-10-24T16:04:23.936Z,24.21
2022-10-24T16:06:50.282Z,24.16
2022-10-24T16:09:16.591Z,24.10
2022-10-24T16:11:42.999Z,24.07
2022-10-24T16:14:09.265Z,24.01
2022-10-24T16:16:35.611Z,23.94
2022-10-24T16:19:01.965Z,23.86
2022-10-24T16:21:28.315Z,23.79
2022-10-24T16:23:55.151Z,23.72
2022-10-24T16:26:21.491Z,23.67
2022-10-24T16:28:47.856Z,23.63
2022-10-24T16:31:14.222Z,23.59
2022-10-24T16:33:40.559Z,23.52
2022-10-24T16:36:06.932Z,23.47
2022-10-24T16:38:33.288Z,23.41
2022-10-24T16:40:59.613Z,23.30
2022-10-24T16:43:25.958Z,23.22
2022-10-24T16:45:52.305Z,23.12
2022-10-24T16:48:18.658Z,23.09
2022-10-24T16:50:46.420Z,23.05
2022-10-24T16:53:11.432Z,22.96
2022-10-24T16:55:37.733Z,22.89
2022-10-24T16:58:04.075Z,22.81
2022-10-24T17:00:30.564Z,22.78
2022-10-24T17:02:56.757Z,22.71
2022-10-24T17:05:23.081Z,22.66
2022-10-24T17:07:49.539Z,22.57
2022-10-24T17:10:18.382Z,22.53
2022-10-24T17:12:42.168Z,22.53
2022-10-24T17:15:08.590Z,22.50
2022-10-24T17:17:34.915Z,22.46
2022-10-24T17:20:01.263Z,22.39
2022-10-24T17:22:27.665Z,22.33
2022-10-24T17:24:53.937Z,22.31
2022-10-24T17:27:20.322Z,22.30
2022-10-24T17:29:46.665Z,22.26
2022-10-24T17:32:13.173Z,22.22
2022-10-24T17:34:41.158Z,22.19
2022-10-24T17:37:07.506Z,22.24
2022-10-24T17:39:33.907Z,22.22
2022-10-24T17:42:00.236Z,22.14
2022-10-24T17:44:26.745Z,22.05
2022-10-24T17:46:56.024Z,21.95
2022-10-24T17:49:21.714Z,21.90
2022-10-24T17:51:45.771Z,21.76
2022-10-24T17:54:12.261Z,21.63
2022-10-24T17:56:38.579Z,21.53
2022-10-24T17:59:05.034Z,21.49
2022-10-24T18:01:31.456Z,21.49
2022-10-24T18:03:57.729Z,21.48
2022-10-24T18:06:24.032Z,21.49
2022-10-24T18:08:50.413Z,21.50
2022-10-24T18:11:16.755Z,21.61
2022-10-24T18:13:43.096Z,21.60
2022-10-24T18:16:09.464Z,21.53
2022-10-24T18:18:35.808Z,21.46
2022-10-24T18:21:02.147Z,21.51
2022-10-24T18:23:28.472Z,21.49
2022-10-24T18:25:54.795Z,21.44
2022-10-24T18:28:21.143Z,21.28
2022-10-24T18:30:47.521Z,21.17
2022-10-24T18:33:13.846Z,21.22
2022-10-24T18:35:40.240Z,21.10
2022-10-24T18:38:06.560Z,20.94
2022-10-24T18:40:32.923Z,20.84
2022-10-24T18:42:59.260Z,20.88
2022-10-24T18:45:25.585Z,20.89
2022-10-24T18:47:51.946Z,20.76
2022-10-24T18:50:18.250Z,20.63
2022-10-24T18:52:44.587Z,20.56
2022-10-24T18:55:10.937Z,20.51
2022-10-24T18:57:37.293Z,20.54
2022-10-24T19:00:03.629Z,20.53
2022-10-24T19:02:30.061Z,20.52
2022-10-24T19:04:56.298Z,20.47
2022-10-24T19:07:22.619Z,20.35
2022-10-24T19:09:48.966Z,20.33
2022-10-24T19:12:15.310Z,20.25
2022-10-24T19:14:41.646Z,20.17
2022-10-24T19:17:07.997Z,20.10
2022-10-24T19:19:34.632Z,20.03
2022-10-24T19:22:00.775Z,19.97
2022-10-24T19:24:27.046Z,19.93
2022-10-24T19:26:53.392Z,19.92
2022-10-24T19:29:19.768Z,20.12
2022-10-24T19:31:46.113Z,20.31
2022-10-24T19:34:12.455Z,20.21
2022-10-24T19:36:38.767Z,20.04
2022-10-24T19:39:05.117Z,19.91
2022-10-24T19:41:31.466Z,19.83
2022-10-24T19:43:57.852Z,19.87
2022-10-24T19:46:24.236Z,19.84
2022-10-24T19:48:50.558Z,19.77
2022-10-24T19:51:16.885Z,19.73
2022-10-24T19:53:43.239Z,19.67
2022-10-24T19:56:09.588Z,19.57
2022-10-24T19:58:35.994Z,19.52
2022-10-24T20:01:02.419Z,19.51
2022-10-24T20:03:28.714Z,19.52
2022-10-24T20:05:55.061Z,19.57
2022-10-24T20:08:21.412Z,19.67
2022-10-24T20:10:47.763Z,19.64
2022-10-24T20:13:14.149Z,19.55
2022-10-24T20:15:40.504Z,19.46
2022-10-24T20:18:06.849Z,19.37
2022-10-24T20:20:33.227Z,19.27
2022-10-24T20:22:59.550Z,19.25
2022-10-24T20:25:25.875Z,19.31
2022-10-24T20:27:52.218Z,19.29
2022-10-24T20:30:18.573Z,19.21
2022-10-24T20:32:44.938Z,19.08
2022-10-24T20:35:11.281Z,19.08
2022-10-24T20:37:37.641Z,19.12
2022-10-24T20:40:03.977Z,19.10
2022-10-24T20:42:30.315Z,19.07
2022-10-24T20:44:56.672Z,18.98
2022-10-24T20:47:23.016Z,18.89
2022-10-24T20:49:49.369Z,18.80
2022-10-24T20:52:15.719Z,18.81
2022-10-24T20:54:42.048Z,18.83
2022-10-24T20:57:08.365Z,18.79
2022-10-24T20:59:34.747Z,18.81
2022-10-24T21:02:01.196Z,18.84
2022-10-24T21:04:27.411Z,18.81
2022-10-24T21:06:53.755Z,18.72
2022-10-24T21:09:20.100Z,18.66
2022-10-24T21:11:46.448Z,18.59
2022-10-24T21:14:12.795Z,18.54
2022-10-24T21:16:39.137Z,18.53
2022-10-24T21:19:05.487Z,18.53
2022-10-24T21:21:31.820Z,18.45
2022-10-24T21:24:02.328Z,18.31
2022-10-24T21:26:24.488Z,18.21
2022-10-24T21:28:53.989Z,18.15
2022-10-24T21:31:17.149Z,18.18
2022-10-24T21:33:43.515Z,18.16
2022-10-24T21:36:09.849Z,18.09
2022-10-24T21:38:36.199Z,18.10
2022-10-24T21:41:02.517Z,18.06
2022-10-24T21:43:28.846Z,18.04
2022-10-24T21:45:55.207Z,18.03
2022-10-24T21:48:23.995Z,17.97
2022-10-24T21:50:47.894Z,17.97
2022-10-24T21:53:14.233Z,17.89
2022-10-24T21:55:40.552Z,17.80
2022-10-24T21:58:06.899Z,17.73
2022-10-24T22:00:35.640Z,17.72
2022-10-24T22:02:59.552Z,17.71
2022-10-24T22:05:25.909Z,17.64
2022-10-24T22:07:52.474Z,17.61
2022-10-24T22:10:18.554Z,17.55
2022-10-24T22:12:44.892Z,17.49
2022-10-24T22:15:11.231Z,17.47
2022-10-24T22:17:37.558Z,17.45
2022-10-24T22:20:03.876Z,17.55
2022-10-24T22:22:30.197Z,17.65
2022-10-24T22:24:56.579Z,17.71
2022-10-24T22:27:22.916Z,17.73
2022-10-24T22:29:49.254Z,17.64
2022-10-24T22:32:15.676Z,17.53
2022-10-24T22:34:41.997Z,17.43
2022-10-24T22:37:08.322Z,17.35
2022-10-24T22:39:34.640Z,17.36
2022-10-24T22:42:00.967Z,17.42
2022-10-24T22:44:27.316Z,17.49
2022-10-24T22:46:53.639Z,17.53
2022-10-24T22:49:19.996Z,17.49
2022-10-24T22:51:46.314Z,17.44
2022-10-24T22:54:12.649Z,17.41
2022-10-24T22:56:38.984Z,17.41
2022-10-24T22:59:05.305Z,17.46
2022-10-24T23:01:31.765Z,17.49
2022-10-24T23:03:57.980Z,17.51
2022-10-24T23:06:24.301Z,17.49
2022-10-24T23:08:50.647Z,17.46
2022-10-24T23:11:16.982Z,17.45
2022-10-24T23:13:43.303Z,17.39
2022-10-24T23:16:09.650Z,17.36
2022-10-24T23:18:35.991Z,17.30
2022-10-24T23:21:02.315Z,17.17
2022-10-24T23:23:29.747Z,17.12
2022-10-24T23:25:54.960Z,17.06
2022-10-24T23:28:21.288Z,16.95
2022-10-24T23:30:47.628Z,16.85
2022-10-24T23:33:13.969Z,16.78
2022-10-24T23:35:40.305Z,16.75
2022-10-24T23:38:06.649Z,16.69
2022-10-24T23:40:32.961Z,16.64
2022-10-24T23:42:59.313Z,16.62
2022-10-24T23:45:25.668Z,16.57
2022-10-24T23:47:51.990Z,16.56
2022-10-24T23:50:18.330Z,16.50
2022-10-24T23:52:44.876Z,16.50
2022-10-24T23:55:11.052Z,16.52
2022-10-24T23:57:37.378Z,16.51
